Time;durP1;ratioP1;P1;durP2;ratioP2;P2;SDS_P1;SDS_P2;PMS_P1;PMS_P2;Temp;Humidity;BMP_temperature;BMP_pressure;BME280_temperature;BME280_humidity;BME280_pressure;Samples;Min_cycle;Max_cycle;Signal;HPM_P1;HPM_P2
2024/03/09 00:00:33;;;;;;;30.93;17.60;;;;;;;;;;4355206;32;317726;-68
2024/03/09 00:03:01;;;;;;;25.40;14.53;;;;;;;;;;4354556;32;318338;-68
2024/03/09 00:05:29;;;;;;;18.27;10.87;;;;;;;;;;4338576;32;418197;-69
2024/03/09 00:07:57;;;;;;;23.50;9.93;;;;;;;;;;4354815;32;318299;-69
2024/03/09 00:10:26;;;;;;;11.67;8.13;;;;;;;;;;4345183;32;317813;-68
2024/03/09 00:12:53;;;;;;;15.57;8.93;;;;;;;;;;4354014;32;317389;-68
2024/03/09 00:15:23;;;;;;;20.17;9.83;;;;;;;;;;4342252;32;317504;-68
2024/03/09 00:17:51;;;;;;;20.93;10.53;;;;;;;;;;4353555;32;317101;-68
2024/03/09 00:20:21;;;;;;;27.17;13.20;;;;;;;;;;4343681;32;318498;-70
2024/03/09 00:22:50;;;;;;;33.73;18.20;;;;;;;;;;4354466;32;318436;-69
2024/03/09 00:25:17;;;;;;;38.87;20.00;;;;;;;;;;4334803;32;317511;-69
2024/03/09 00:27:44;;;;;;;44.50;21.67;;;;;;;;;;4353753;32;318323;-68
2024/03/09 00:30:17;;;;;;;34.83;17.87;;;;;;;;;;4343452;32;318345;-68
2024/03/09 00:32:44;;;;;;;33.53;18.03;;;;;;;;;;4354213;32;318441;-69
2024/03/09 00:35:11;;;;;;;21.03;12.53;;;;;;;;;;4344647;32;318221;-69
2024/03/09 00:37:38;;;;;;;12.90;8.70;;;;;;;;;;4351897;32;318711;-68
2024/03/09 00:40:08;;;;;;;17.57;11.17;;;;;;;;;;4344725;32;317469;-69
2024/03/09 00:42:35;;;;;;;34.20;14.10;;;;;;;;;;4353403;32;318692;-68
2024/03/09 00:45:03;;;;;;;20.87;11.30;;;;;;;;;;4354118;32;318873;-68
2024/03/09 00:47:30;;;;;;;26.13;11.90;;;;;;;;;;4319212;32;417562;-69
2024/03/09 00:49:58;;;;;;;22.80;11.43;;;;;;;;;;4354152;32;317714;-68
2024/03/09 00:52:25;;;;;;;21.80;11.70;;;;;;;;;;4343370;32;318774;-69
2024/03/09 00:54:53;;;;;;;23.13;11.60;;;;;;;;;;4354241;32;318418;-70
2024/03/09 00:57:21;;;;;;;26.87;13.03;;;;;;;;;;4341859;32;318267;-68
2024/03/09 00:59:48;;;;;;;26.97;11.60;;;;;;;;;;4353857;32;318649;-68
2024/03/09 01:02:15;;;;;;;27.37;14.37;;;;;;;;;;4344215;32;318505;-69
2024/03/09 01:04:42;;;;;;;22.50;11.73;;;;;;;;;;4354437;32;318134;-67
2024/03/09 01:07:09;;;;;;;24.50;13.20;;;;;;;;;;4343037;32;318605;-67
2024/03/09 01:09:35;;;;;;;34.53;15.03;;;;;;;;;;4344809;32;317687;-67
2024/03/09 01:12:03;;;;;;;33.97;16.83;;;;;;;;;;4353367;32;317706;-68
2024/03/09 01:14:31;;;;;;;47.97;19.53;;;;;;;;;;4339920;32;419509;-68
2024/03/09 01:16:59;;;;;;;35.07;18.47;;;;;;;;;;4352732;32;318767;-68
2024/03/09 01:19:26;;;;;;;50.10;24.43;;;;;;;;;;4342155;32;318672;-67
2024/03/09 01:21:54;;;;;;;47.70;21.10;;;;;;;;;;4354150;32;318653;-69
2024/03/09 01:24:21;;;;;;;32.10;16.10;;;;;;;;;;4343910;32;326074;-68
2024/03/09 01:26:48;;;;;;;35.63;17.87;;;;;;;;;;4353948;32;318303;-67
2024/03/09 01:29:16;;;;;;;35.57;17.57;;;;;;;;;;4342311;32;318551;-71
2024/03/09 01:31:44;;;;;;;28.03;13.90;;;;;;;;;;4350004;32;318580;-69
2024/03/09 01:34:12;;;;;;;32.93;14.97;;;;;;;;;;4342695;32;318410;-68
2024/03/09 01:36:39;;;;;;;31.03;15.23;;;;;;;;;;4340329;32;318350;-68
2024/03/09 01:39:05;;;;;;;43.07;23.33;;;;;;;;;;4342578;32;318771;-68
2024/03/09 01:41:34;;;;;;;73.93;35.83;;;;;;;;;;4351015;32;318610;-68
2024/03/09 01:44:00;;;;;;;27.57;17.00;;;;;;;;;;4351846;32;318677;-68
2024/03/09 01:46:28;;;;;;;29.20;17.20;;;;;;;;;;4343373;32;330779;-68
2024/03/09 01:48:57;;;;;;;27.17;15.73;;;;;;;;;;4352488;32;317699;-68
2024/03/09 01:51:24;;;;;;;40.67;17.13;;;;;;;;;;4339232;32;319424;-68
2024/03/09 01:53:53;;;;;;;41.27;23.07;;;;;;;;;;4353351;32;318217;-68
2024/03/09 01:56:22;;;;;;;49.83;25.80;;;;;;;;;;4342361;32;318852;-68
2024/03/09 01:58:49;;;;;;;52.17;27.93;;;;;;;;;;4352035;32;317846;-68
2024/03/09 02:01:26;;;;;;;70.30;34.57;;;;;;;;;;4341259;32;318418;-68
2024/03/09 02:03:53;;;;;;;62.93;34.73;;;;;;;;;;4351761;32;331278;-69
2024/03/09 02:06:23;;;;;;;60.73;32.70;;;;;;;;;;4343297;32;317710;-68
2024/03/09 02:08:51;;;;;;;43.83;24.30;;;;;;;;;;4352889;32;318517;-68
2024/03/09 02:11:18;;;;;;;39.77;22.47;;;;;;;;;;4339982;32;318526;-68
2024/03/09 02:13:46;;;;;;;48.43;25.67;;;;;;;;;;4353172;32;318389;-68
2024/03/09 02:16:13;;;;;;;57.03;28.83;;;;;;;;;;4342885;32;318581;-71
2024/03/09 02:18:40;;;;;;;53.87;27.53;;;;;;;;;;4352981;32;318392;-68
2024/03/09 02:21:08;;;;;;;75.60;34.90;;;;;;;;;;4342213;32;318978;-68
2024/03/09 02:23:37;;;;;;;57.73;31.73;;;;;;;;;;4349728;32;318017;-68
2024/03/09 02:26:06;;;;;;;55.63;28.97;;;;;;;;;;4341951;32;318471;-68
2024/03/09 02:28:34;;;;;;;47.70;24.47;;;;;;;;;;4352215;32;318317;-69
2024/03/09 02:31:02;;;;;;;44.47;22.43;;;;;;;;;;4352586;32;318513;-68
2024/03/09 02:33:29;;;;;;;38.43;20.87;;;;;;;;;;4336991;32;417645;-69
2024/03/09 02:35:56;;;;;;;40.77;21.03;;;;;;;;;;4352506;32;327708;-69
2024/03/09 02:38:24;;;;;;;31.27;18.67;;;;;;;;;;4342407;32;318140;-68
2024/03/09 02:40:51;;;;;;;25.87;17.17;;;;;;;;;;4352801;32;317758;-68
2024/03/09 02:43:22;;;;;;;30.90;17.17;;;;;;;;;;4340638;32;318424;-68
2024/03/09 02:45:49;;;;;;;25.33;14.23;;;;;;;;;;4352536;32;318253;-69
2024/03/09 02:48:16;;;;;;;25.37;12.87;;;;;;;;;;4341643;32;318312;-67
2024/03/09 02:50:43;;;;;;;22.27;13.30;;;;;;;;;;4351257;32;358988;-67
2024/03/09 02:53:09;;;;;;;21.63;11.50;;;;;;;;;;4342613;32;319852;-67
2024/03/09 02:55:36;;;;;;;21.67;13.87;;;;;;;;;;4350021;32;318267;-68
2024/03/09 02:58:03;;;;;;;19.37;13.50;;;;;;;;;;4343665;32;318469;-70
2024/03/09 03:00:31;;;;;;;20.80;13.70;;;;;;;;;;4351076;32;317666;-69
2024/03/09 03:05:43;;;;;;;18.00;12.30;;;;;;;;;;4338080;32;388486;-69
2024/03/09 03:08:11;;;;;;;19.50;13.20;;;;;;;;;;4342617;32;318327;-69
2024/03/09 03:10:39;;;;;;;20.87;13.63;;;;;;;;;;4351994;32;317934;-72
2024/03/09 03:13:08;;;;;;;31.47;14.53;;;;;;;;;;4339096;32;358970;-69
2024/03/09 03:15:37;;;;;;;28.87;15.30;;;;;;;;;;4348743;32;318490;-70
2024/03/09 03:18:07;;;;;;;30.47;16.47;;;;;;;;;;4342148;32;318645;-69
2024/03/09 03:20:35;;;;;;;36.17;19.53;;;;;;;;;;4351661;32;318263;-67
2024/03/09 03:23:04;;;;;;;57.97;26.37;;;;;;;;;;4350559;32;330244;-67
2024/03/09 03:25:30;;;;;;;44.73;26.53;;;;;;;;;;4336490;32;419558;-67
2024/03/09 03:27:57;;;;;;;36.20;24.07;;;;;;;;;;4352005;32;318723;-68
2024/03/09 03:30:25;;;;;;;40.80;21.73;;;;;;;;;;4341862;32;318387;-68
2024/03/09 03:32:54;;;;;;;36.03;20.47;;;;;;;;;;4350494;32;318678;-67
2024/03/09 03:35:24;;;;;;;35.80;20.17;;;;;;;;;;4340108;32;317876;-68
2024/03/09 03:37:53;;;;;;;29.47;17.57;;;;;;;;;;4351598;32;318354;-67
2024/03/09 03:40:23;;;;;;;31.43;18.03;;;;;;;;;;4342228;32;318477;-67
2024/03/09 03:42:50;;;;;;;29.70;16.23;;;;;;;;;;4350963;32;318442;-68
2024/03/09 03:45:17;;;;;;;31.27;15.67;;;;;;;;;;4339871;32;317819;-67
2024/03/09 03:47:44;;;;;;;30.60;17.10;;;;;;;;;;4352071;32;318316;-67
2024/03/09 03:50:13;;;;;;;22.77;15.23;;;;;;;;;;4342426;32;318674;-69
2024/03/09 03:52:40;;;;;;;21.87;14.43;;;;;;;;;;4351477;32;327843;-67
2024/03/09 03:55:11;;;;;;;22.47;13.60;;;;;;;;;;4342131;32;318142;-67
2024/03/09 03:57:40;;;;;;;26.47;14.50;;;;;;;;;;4349633;32;318405;-67
2024/03/09 04:00:12;;;;;;;29.17;15.70;;;;;;;;;;4341839;32;318276;-68
2024/03/09 04:02:41;;;;;;;36.17;15.47;;;;;;;;;;4351024;32;318847;-69
2024/03/09 04:05:08;;;;;;;25.17;15.87;;;;;;;;;;4338610;32;323152;-67
2024/03/09 04:07:37;;;;;;;34.27;19.50;;;;;;;;;;4349546;32;318271;-69
2024/03/09 04:10:14;;;;;;;44.23;22.57;;;;;;;;;;4342178;32;318835;-67
2024/03/09 04:12:42;;;;;;;39.43;19.80;;;;;;;;;;4351816;32;318509;-67
2024/03/09 04:15:09;;;;;;;61.20;28.60;;;;;;;;;;4342174;32;318545;-67
2024/03/09 04:17:36;;;;;;;73.90;38.03;;;;;;;;;;4349123;32;318294;-67
2024/03/09 04:20:05;;;;;;;63.50;32.00;;;;;;;;;;4342245;32;318231;-69
2024/03/09 04:22:32;;;;;;;58.57;31.63;;;;;;;;;;4351518;32;318534;-67
2024/03/09 04:25:01;;;;;;;58.00;31.73;;;;;;;;;;4350596;32;318423;-67
2024/03/09 04:27:28;;;;;;;50.70;25.93;;;;;;;;;;4336938;32;419404;-70
2024/03/09 04:29:55;;;;;;;48.20;25.70;;;;;;;;;;4351671;32;318527;-67
2024/03/09 04:32:22;;;;;;;31.03;19.13;;;;;;;;;;4342033;32;318593;-67
2024/03/09 04:34:49;;;;;;;36.00;18.47;;;;;;;;;;4351787;32;317946;-67
2024/03/09 04:37:25;;;;;;;28.63;16.70;;;;;;;;;;4345102;32;318199;-67
2024/03/09 04:39:53;;;;;;;29.30;15.70;;;;;;;;;;4352838;32;344259;-67
2024/03/09 04:42:24;;;;;;;25.40;15.93;;;;;;;;;;4343893;32;318510;-67
2024/03/09 04:44:51;;;;;;;24.50;16.47;;;;;;;;;;4353348;32;327733;-67
2024/03/09 04:47:18;;;;;;;25.27;16.17;;;;;;;;;;4340950;32;318512;-70
2024/03/09 04:49:45;;;;;;;26.43;14.27;;;;;;;;;;4354011;32;317605;-66
2024/03/09 04:52:13;;;;;;;33.17;17.47;;;;;;;;;;4343637;32;318155;-69
2024/03/09 04:54:43;;;;;;;26.57;14.80;;;;;;;;;;4354767;32;318850;-69
2024/03/09 04:57:11;;;;;;;31.27;15.13;;;;;;;;;;4344279;32;318470;-67
2024/03/09 04:59:40;;;;;;;22.80;14.03;;;;;;;;;;4350501;32;318282;-68
2024/03/09 05:02:07;;;;;;;21.33;14.13;;;;;;;;;;4336293;32;317743;-67
2024/03/09 05:04:33;;;;;;;27.13;13.20;;;;;;;;;;4352528;32;317805;-67
2024/03/09 05:07:03;;;;;;;19.73;12.23;;;;;;;;;;4353874;32;317580;-68
2024/03/09 05:09:30;;;;;;;25.37;12.70;;;;;;;;;;4338843;32;419202;-67
2024/03/09 05:11:57;;;;;;;24.10;12.00;;;;;;;;;;4353984;32;318207;-69
2024/03/09 05:14:24;;;;;;;25.30;11.27;;;;;;;;;;4343934;32;318454;-69
2024/03/09 05:16:52;;;;;;;14.50;10.73;;;;;;;;;;4353919;32;317775;-69
2024/03/09 05:19:19;;;;;;;15.40;9.53;;;;;;;;;;4335442;32;318252;-71
2024/03/09 05:21:46;;;;;;;13.50;8.80;;;;;;;;;;4339888;32;317210;-70
2024/03/09 05:24:13;;;;;;;17.47;11.20;;;;;;;;;;4353523;32;316857;-68
2024/03/09 05:26:42;;;;;;;17.13;12.27;;;;;;;;;;4343806;32;318210;-69
2024/03/09 05:29:11;;;;;;;16.07;10.77;;;;;;;;;;4351931;32;335790;-69
2024/03/09 05:31:39;;;;;;;14.47;9.37;;;;;;;;;;4343898;32;318125;-69
2024/03/09 05:34:08;;;;;;;14.10;9.10;;;;;;;;;;4350307;32;317567;-69
2024/03/09 05:36:34;;;;;;;15.77;10.33;;;;;;;;;;4343747;32;317289;-69
2024/03/09 05:39:01;;;;;;;20.70;9.80;;;;;;;;;;4352762;32;317810;-68
2024/03/09 05:41:28;;;;;;;16.53;10.77;;;;;;;;;;4352013;32;317847;-69
2024/03/09 05:43:55;;;;;;;16.77;10.60;;;;;;;;;;4340629;32;334737;-69
2024/03/09 05:46:22;;;;;;;19.37;11.47;;;;;;;;;;4353562;32;318258;-67
2024/03/09 05:48:50;;;;;;;20.53;13.10;;;;;;;;;;4343110;32;318125;-67
2024/03/09 05:51:18;;;;;;;23.63;13.27;;;;;;;;;;4350839;32;318310;-68
2024/03/09 05:53:46;;;;;;;27.70;15.70;;;;;;;;;;4339725;32;318664;-67
2024/03/09 05:56:12;;;;;;;29.70;19.47;;;;;;;;;;4353575;32;318222;-67
2024/03/09 05:58:40;;;;;;;20.60;13.93;;;;;;;;;;4342918;32;318416;-70
2024/03/09 06:01:07;;;;;;;21.23;14.47;;;;;;;;;;4353318;32;318129;-67
2024/03/09 06:03:36;;;;;;;21.20;14.40;;;;;;;;;;4343425;32;318354;-69
2024/03/09 06:06:02;;;;;;;17.93;13.03;;;;;;;;;;4350827;32;318277;-68
2024/03/09 06:08:33;;;;;;;20.60;15.13;;;;;;;;;;4351895;32;317808;-68
2024/03/09 06:11:01;;;;;;;23.37;16.17;;;;;;;;;;4340367;32;417369;-68
2024/03/09 06:13:29;;;;;;;23.50;17.63;;;;;;;;;;4353147;32;318212;-69
2024/03/09 06:15:56;;;;;;;27.93;17.37;;;;;;;;;;4337843;32;417944;-68
2024/03/09 06:18:24;;;;;;;27.87;18.50;;;;;;;;;;4351866;32;318246;-69
2024/03/09 06:20:51;;;;;;;31.00;16.97;;;;;;;;;;4342832;32;317700;-68
2024/03/09 06:23:19;;;;;;;25.33;17.63;;;;;;;;;;4353045;32;318159;-69
2024/03/09 06:25:47;;;;;;;26.90;17.20;;;;;;;;;;4342921;32;317487;-68
2024/03/09 06:28:14;;;;;;;35.93;24.30;;;;;;;;;;4350209;32;318175;-68
2024/03/09 06:30:41;;;;;;;41.83;26.93;;;;;;;;;;4342767;32;318242;-71
2024/03/09 06:33:09;;;;;;;55.37;32.33;;;;;;;;;;4352049;32;317540;-68
2024/03/09 06:35:36;;;;;;;46.77;29.37;;;;;;;;;;4342705;32;318031;-69
2024/03/09 06:38:05;;;;;;;46.10;27.13;;;;;;;;;;4342069;32;317537;-69
2024/03/09 06:40:34;;;;;;;49.67;29.40;;;;;;;;;;4341187;32;318334;-72
2024/03/09 06:43:05;;;;;;;49.50;29.90;;;;;;;;;;4352652;32;318160;-70
2024/03/09 06:45:32;;;;;;;46.43;26.67;;;;;;;;;;4342917;32;318514;-69
2024/03/09 06:47:59;;;;;;;59.63;26.60;;;;;;;;;;4348684;32;318291;-69
2024/03/09 06:50:26;;;;;;;42.13;21.13;;;;;;;;;;4343284;32;317540;-69
2024/03/09 06:52:53;;;;;;;24.00;16.20;;;;;;;;;;4341681;32;318266;-68
2024/03/09 06:55:24;;;;;;;24.73;16.20;;;;;;;;;;4352395;32;318244;-69
2024/03/09 06:57:52;;;;;;;23.13;15.30;;;;;;;;;;4338486;32;318564;-68
2024/03/09 07:00:21;;;;;;;25.13;13.53;;;;;;;;;;4352508;32;317604;-68
2024/03/09 07:02:49;;;;;;;30.90;16.03;;;;;;;;;;4342422;32;318433;-69
2024/03/09 07:05:16;;;;;;;29.30;17.17;;;;;;;;;;4343711;32;343276;-69
2024/03/09 07:07:44;;;;;;;22.90;16.50;;;;;;;;;;4342869;32;318336;-70
2024/03/09 07:10:11;;;;;;;21.80;12.83;;;;;;;;;;4349713;32;318168;-71
2024/03/09 07:12:39;;;;;;;21.40;14.53;;;;;;;;;;4341609;32;318308;-69
2024/03/09 07:15:10;;;;;;;26.00;14.13;;;;;;;;;;4350695;32;317707;-69
2024/03/09 07:17:39;;;;;;;22.20;14.43;;;;;;;;;;4341063;32;318282;-71
2024/03/09 07:20:12;;;;;;;23.33;14.30;;;;;;;;;;4350096;32;318425;-69
2024/03/09 07:22:40;;;;;;;22.83;16.20;;;;;;;;;;4341417;32;318416;-69
2024/03/09 07:25:09;;;;;;;27.30;16.53;;;;;;;;;;4352313;32;318407;-69
2024/03/09 07:27:36;;;;;;;29.37;15.27;;;;;;;;;;4342527;32;318655;-68
2024/03/09 07:30:08;;;;;;;22.77;14.73;;;;;;;;;;4348337;32;317746;-69
2024/03/09 07:32:34;;;;;;;20.60;13.83;;;;;;;;;;4342346;32;318227;-68
2024/03/09 07:35:14;;;;;;;22.77;15.57;;;;;;;;;;4350595;32;318368;-69
2024/03/09 07:37:43;;;;;;;30.37;16.87;;;;;;;;;;4342489;32;318601;-68
2024/03/09 07:40:11;;;;;;;22.00;14.90;;;;;;;;;;4349994;32;318714;-69
2024/03/09 07:42:38;;;;;;;26.63;16.70;;;;;;;;;;4340925;32;360052;-69
2024/03/09 07:45:10;;;;;;;32.23;16.77;;;;;;;;;;4349844;32;350786;-72
2024/03/09 07:47:38;;;;;;;31.77;16.90;;;;;;;;;;4342226;32;318415;-70
2024/03/09 07:50:13;;;;;;;42.13;18.33;;;;;;;;;;4349717;32;318941;-68
2024/03/09 07:52:42;;;;;;;45.33;19.57;;;;;;;;;;4341141;32;318393;-70
2024/03/09 07:55:09;;;;;;;36.67;19.87;;;;;;;;;;4352434;32;318453;-68
2024/03/09 07:57:37;;;;;;;33.13;21.13;;;;;;;;;;4341364;32;334131;-68
2024/03/09 08:00:05;;;;;;;37.57;19.93;;;;;;;;;;4349789;32;317694;-69
2024/03/09 08:02:34;;;;;;;29.00;19.10;;;;;;;;;;4340645;32;318283;-68
2024/03/09 08:05:03;;;;;;;30.37;20.13;;;;;;;;;;4351011;32;318437;-71
2024/03/09 08:07:32;;;;;;;29.67;18.63;;;;;;;;;;4341866;32;318215;-70
2024/03/09 08:09:59;;;;;;;30.33;18.57;;;;;;;;;;4351484;32;317835;-71
2024/03/09 08:12:25;;;;;;;29.90;18.20;;;;;;;;;;4354369;32;318184;-71
2024/03/09 08:14:52;;;;;;;24.73;14.87;;;;;;;;;;4343762;32;338288;-69
2024/03/09 08:17:20;;;;;;;28.13;15.27;;;;;;;;;;4354501;32;317318;-68
2024/03/09 08:19:47;;;;;;;31.43;17.33;;;;;;;;;;4340950;32;318479;-69
2024/03/09 08:22:14;;;;;;;30.47;18.53;;;;;;;;;;4354929;32;318384;-70
2024/03/09 08:24:42;;;;;;;29.77;15.50;;;;;;;;;;4344790;32;318287;-68
2024/03/09 08:27:08;;;;;;;35.80;21.43;;;;;;;;;;4354547;32;318079;-68
2024/03/09 08:29:35;;;;;;;31.13;23.30;;;;;;;;;;4343497;32;318494;-69
2024/03/09 08:32:05;;;;;;;38.07;23.87;;;;;;;;;;4350781;32;318291;-70
2024/03/09 08:34:32;;;;;;;42.47;23.87;;;;;;;;;;4344276;32;318357;-71
2024/03/09 08:37:00;;;;;;;36.63;25.17;;;;;;;;;;4354365;32;318111;-68
2024/03/09 08:39:26;;;;;;;34.43;21.97;;;;;;;;;;4354391;32;318795;-71
2024/03/09 08:41:57;;;;;;;34.00;24.50;;;;;;;;;;4340678;32;317535;-71
2024/03/09 08:44:24;;;;;;;34.67;23.30;;;;;;;;;;4354143;32;318557;-69
2024/03/09 08:46:51;;;;;;;32.73;22.37;;;;;;;;;;4344203;32;318287;-68
2024/03/09 08:49:17;;;;;;;36.83;21.03;;;;;;;;;;4354097;32;318417;-71
2024/03/09 08:51:44;;;;;;;33.10;21.47;;;;;;;;;;4343023;32;318462;-69
2024/03/09 08:54:12;;;;;;;29.17;15.17;;;;;;;;;;4350929;32;318199;-69
2024/03/09 08:56:39;;;;;;;16.10;10.57;;;;;;;;;;4344020;32;318500;-69
2024/03/09 08:59:08;;;;;;;22.83;11.77;;;;;;;;;;4353657;32;317745;-69
2024/03/09 09:01:34;;;;;;;15.07;11.60;;;;;;;;;;4343059;32;318459;-69
2024/03/09 09:04:04;;;;;;;24.60;15.27;;;;;;;;;;4351999;32;317493;-69
2024/03/09 09:06:31;;;;;;;22.13;12.13;;;;;;;;;;4343663;32;318353;-69
2024/03/09 09:08:59;;;;;;;21.13;11.97;;;;;;;;;;4352681;32;318232;-69
2024/03/09 09:11:28;;;;;;;16.80;11.10;;;;;;;;;;4354050;32;318411;-70
2024/03/09 09:13:54;;;;;;;21.50;12.20;;;;;;;;;;4340150;32;317531;-71
2024/03/09 09:16:22;;;;;;;14.73;10.27;;;;;;;;;;4345339;32;349044;-70
2024/03/09 09:18:49;;;;;;;25.00;14.43;;;;;;;;;;4341493;32;360035;-69
2024/03/09 09:21:16;;;;;;;16.47;10.63;;;;;;;;;;4352802;32;318525;-69
2024/03/09 09:23:42;;;;;;;20.67;12.63;;;;;;;;;;4343039;32;318344;-70
2024/03/09 09:26:10;;;;;;;23.40;13.00;;;;;;;;;;4349834;32;317743;-69
2024/03/09 09:28:38;;;;;;;20.40;12.93;;;;;;;;;;4342173;32;318260;-69
2024/03/09 09:31:04;;;;;;;24.60;15.17;;;;;;;;;;4352876;32;319539;-68
2024/03/09 09:33:33;;;;;;;21.70;13.23;;;;;;;;;;4342764;32;324226;-68
2024/03/09 09:35:59;;;;;;;19.77;13.27;;;;;;;;;;4350611;32;318883;-69
2024/03/09 09:38:26;;;;;;;14.77;10.63;;;;;;;;;;4351695;32;319413;-69
2024/03/09 09:40:58;;;;;;;22.47;12.13;;;;;;;;;;4343620;32;319620;-68
2024/03/09 09:43:26;;;;;;;27.17;16.03;;;;;;;;;;4352207;32;334160;-69
2024/03/09 09:45:53;;;;;;;19.13;13.40;;;;;;;;;;4340255;32;336174;-68
2024/03/09 09:48:21;;;;;;;19.77;14.10;;;;;;;;;;4352048;32;319464;-68
2024/03/09 09:50:50;;;;;;;24.60;13.63;;;;;;;;;;4341839;32;319565;-67
2024/03/09 09:53:18;;;;;;;22.93;13.93;;;;;;;;;;4353286;32;319731;-69
2024/03/09 09:55:46;;;;;;;25.60;14.50;;;;;;;;;;4342118;32;319500;-68
2024/03/09 09:58:13;;;;;;;28.57;13.33;;;;;;;;;;4353294;32;319297;-69
2024/03/09 10:00:41;;;;;;;24.63;15.40;;;;;;;;;;4341592;32;332119;-68
2024/03/09 10:03:08;;;;;;;23.13;15.83;;;;;;;;;;4352113;32;319712;-68
2024/03/09 10:05:35;;;;;;;28.07;15.47;;;;;;;;;;4342021;32;319369;-70
2024/03/09 10:08:06;;;;;;;23.60;14.50;;;;;;;;;;4349707;32;319459;-68
2024/03/09 10:10:35;;;;;;;21.20;12.60;;;;;;;;;;4341324;32;319697;-68
2024/03/09 10:13:09;;;;;;;18.13;10.87;;;;;;;;;;4353199;32;319149;-69
2024/03/09 10:15:38;;;;;;;14.73;10.47;;;;;;;;;;4343331;32;319439;-68
2024/03/09 10:18:06;;;;;;;19.70;11.63;;;;;;;;;;4350766;32;319602;-68
2024/03/09 10:20:35;;;;;;;19.00;11.63;;;;;;;;;;4342916;32;319404;-69
2024/03/09 10:23:04;;;;;;;20.87;12.90;;;;;;;;;;4352167;32;319266;-69
2024/03/09 10:25:35;;;;;;;17.37;11.33;;;;;;;;;;4341947;32;349691;-69
2024/03/09 10:28:02;;;;;;;17.03;11.43;;;;;;;;;;4350709;32;318989;-68
2024/03/09 10:30:29;;;;;;;19.03;11.90;;;;;;;;;;4351428;32;359974;-68
2024/03/09 10:32:57;;;;;;;23.70;12.47;;;;;;;;;;4318755;32;418907;-69
2024/03/09 10:35:25;;;;;;;19.00;11.73;;;;;;;;;;4351623;32;319550;-68
2024/03/09 10:37:55;;;;;;;22.40;11.10;;;;;;;;;;4339346;32;319327;-69
2024/03/09 10:40:24;;;;;;;21.30;12.03;;;;;;;;;;4353071;32;319452;-68
2024/03/09 10:42:52;;;;;;;18.87;12.00;;;;;;;;;;4342796;32;318893;-70
2024/03/09 10:45:20;;;;;;;15.47;10.67;;;;;;;;;;4351931;32;318851;-70
2024/03/09 10:47:49;;;;;;;21.33;13.10;;;;;;;;;;4340316;32;319574;-68
2024/03/09 10:50:23;;;;;;;18.43;12.37;;;;;;;;;;4351439;32;320440;-71
2024/03/09 10:53:01;;;;;;;20.83;12.90;;;;;;;;;;4342554;32;319393;-68
2024/03/09 10:55:39;;;;;;;17.67;11.67;;;;;;;;;;4351904;32;319528;-71
2024/03/09 10:58:06;;;;;;;30.50;12.43;;;;;;;;;;4336760;32;418490;-68
2024/03/09 11:00:33;;;;;;;21.83;12.47;;;;;;;;;;4342166;32;319249;-70
2024/03/09 11:03:03;;;;;;;23.17;12.70;;;;;;;;;;4352480;32;318823;-68
2024/03/09 11:05:31;;;;;;;21.80;12.17;;;;;;;;;;4351890;32;320249;-69
2024/03/09 11:07:58;;;;;;;22.80;12.87;;;;;;;;;;4337491;32;418191;-68
2024/03/09 11:10:26;;;;;;;21.93;12.67;;;;;;;;;;4352491;32;319503;-68
2024/03/09 11:12:55;;;;;;;19.07;13.50;;;;;;;;;;4342133;32;319277;-68
2024/03/09 11:15:25;;;;;;;19.63;12.00;;;;;;;;;;4352528;32;319248;-66
2024/03/09 11:17:54;;;;;;;24.83;14.13;;;;;;;;;;4339412;32;319384;-66
2024/03/09 11:20:22;;;;;;;17.77;12.47;;;;;;;;;;4351092;32;318701;-66
2024/03/09 11:22:50;;;;;;;25.97;14.13;;;;;;;;;;4342350;32;319428;-66
2024/03/09 11:25:35;;;;;;;23.00;13.10;;;;;;;;;;4352244;32;319615;-70
2024/03/09 11:28:04;;;;;;;27.00;15.07;;;;;;;;;;4338008;32;418677;-71
2024/03/09 11:30:31;;;;;;;21.57;14.73;;;;;;;;;;4342576;32;319341;-71
2024/03/09 11:32:58;;;;;;;21.87;12.67;;;;;;;;;;4351898;32;319543;-69
2024/03/09 11:35:31;;;;;;;17.63;11.10;;;;;;;;;;4352136;32;319583;-69
2024/03/09 11:38:00;;;;;;;18.47;10.83;;;;;;;;;;4335464;32;420340;-69
2024/03/09 11:40:28;;;;;;;11.30;8.77;;;;;;;;;;4351952;32;319562;-69
2024/03/09 11:43:03;;;;;;;18.67;8.93;;;;;;;;;;4339948;32;318609;-68
2024/03/09 11:45:35;;;;;;;12.33;9.33;;;;;;;;;;4351736;32;318532;-67
2024/03/09 11:48:02;;;;;;;10.07;7.83;;;;;;;;;;4336453;32;417982;-67
2024/03/09 11:50:29;;;;;;;17.53;9.80;;;;;;;;;;4351976;32;318449;-68
2024/03/09 11:52:56;;;;;;;14.93;8.83;;;;;;;;;;4339777;32;419614;-67
2024/03/09 11:55:26;;;;;;;15.53;8.73;;;;;;;;;;4351957;32;318834;-67
2024/03/09 11:57:55;;;;;;;10.43;8.50;;;;;;;;;;4341864;32;318263;-71
2024/03/09 12:00:23;;;;;;;16.00;8.97;;;;;;;;;;4349404;32;317810;-67
2024/03/09 12:02:52;;;;;;;13.17;8.37;;;;;;;;;;4342145;32;318371;-67
2024/03/09 12:05:19;;;;;;;17.70;9.67;;;;;;;;;;4351550;32;318186;-70
2024/03/09 12:07:47;;;;;;;10.23;7.53;;;;;;;;;;4342176;32;318512;-67
2024/03/09 12:10:14;;;;;;;13.43;9.67;;;;;;;;;;4347918;32;318316;-68
2024/03/09 12:12:44;;;;;;;15.37;9.63;;;;;;;;;;4341995;32;318663;-68
2024/03/09 12:15:12;;;;;;;15.27;8.87;;;;;;;;;;4351807;32;318339;-69
2024/03/09 12:17:40;;;;;;;12.03;8.10;;;;;;;;;;4341989;32;318375;-68
2024/03/09 12:20:12;;;;;;;10.87;7.77;;;;;;;;;;4347904;32;317744;-67
2024/03/09 12:22:40;;;;;;;16.10;9.77;;;;;;;;;;4341755;32;318698;-68
2024/03/09 12:25:08;;;;;;;15.70;8.07;;;;;;;;;;4350273;32;318110;-70
2024/03/09 12:27:37;;;;;;;11.87;8.00;;;;;;;;;;4340869;32;318757;-68
2024/03/09 12:30:07;;;;;;;12.57;8.80;;;;;;;;;;4348277;32;317440;-68
2024/03/09 12:32:34;;;;;;;14.80;6.07;;;;;;;;;;4342016;32;318599;-67
2024/03/09 12:35:05;;;;;;;16.33;5.20;;;;;;;;;;4350789;32;318511;-68
2024/03/09 12:37:35;;;;;;;7.53;5.13;;;;;;;;;;4342146;32;318466;-68
2024/03/09 12:40:17;;;;;;;7.73;5.60;;;;;;;;;;4348400;32;317424;-69
2024/03/09 12:42:44;;;;;;;8.47;5.43;;;;;;;;;;4341890;32;317945;-69
2024/03/09 12:45:29;;;;;;;9.57;6.60;;;;;;;;;;4351854;32;316643;-68
2024/03/09 12:47:56;;;;;;;7.50;4.53;;;;;;;;;;4337309;32;416386;-71
2024/03/09 12:50:23;;;;;;;7.77;5.93;;;;;;;;;;4350721;32;317200;-68
2024/03/09 12:52:52;;;;;;;7.83;6.10;;;;;;;;;;4341922;32;317658;-70
2024/03/09 12:55:20;;;;;;;10.63;5.77;;;;;;;;;;4351917;32;316849;-69
2024/03/09 12:57:50;;;;;;;8.37;4.50;;;;;;;;;;4344663;32;318197;-68
2024/03/09 13:00:21;;;;;;;9.97;4.90;;;;;;;;;;4350602;32;316680;-68
2024/03/09 13:02:49;;;;;;;10.37;7.03;;;;;;;;;;4344253;32;317117;-70
2024/03/09 13:05:18;;;;;;;19.23;7.43;;;;;;;;;;4354364;32;318080;-68
2024/03/09 13:07:46;;;;;;;16.00;7.23;;;;;;;;;;4344265;32;318170;-69
2024/03/09 13:10:24;;;;;;;12.07;6.23;;;;;;;;;;4351452;32;318431;-68
2024/03/09 13:12:51;;;;;;;14.30;7.65;;;;;;;;;;4342914;32;348781;-68
2024/03/09 13:15:20;;;;;;;18.10;11.10;;;;;;;;;;4353082;32;318207;-68
2024/03/09 13:17:49;;;;;;;10.53;7.20;;;;;;;;;;4342392;32;318568;-69
2024/03/09 13:20:19;;;;;;;9.37;6.90;;;;;;;;;;4350416;32;338006;-67
2024/03/09 13:22:47;;;;;;;8.30;5.47;;;;;;;;;;4343567;32;317246;-70
2024/03/09 13:25:16;;;;;;;9.70;6.43;;;;;;;;;;4352694;32;317189;-68
2024/03/09 13:27:43;;;;;;;9.47;6.20;;;;;;;;;;4342859;32;317264;-68
2024/03/09 13:30:17;;;;;;;11.87;5.30;;;;;;;;;;4350616;32;316896;-67
2024/03/09 13:32:48;;;;;;;8.90;5.83;;;;;;;;;;4344023;32;318398;-68
2024/03/09 13:35:15;;;;;;;8.43;5.83;;;;;;;;;;4353079;32;316614;-69
2024/03/09 13:37:42;;;;;;;5.50;3.93;;;;;;;;;;4341613;32;355776;-68
2024/03/09 13:40:11;;;;;;;8.07;6.03;;;;;;;;;;4350094;32;326312;-70
2024/03/09 13:42:39;;;;;;;6.93;4.23;;;;;;;;;;4342812;32;317291;-68
2024/03/09 13:45:09;;;;;;;12.03;5.47;;;;;;;;;;4353634;32;317259;-67
2024/03/09 13:47:38;;;;;;;7.93;6.30;;;;;;;;;;4342888;32;318016;-68
2024/03/09 13:50:07;;;;;;;9.00;5.43;;;;;;;;;;4351344;32;317168;-68
2024/03/09 13:52:34;;;;;;;8.37;5.53;;;;;;;;;;4341073;32;317212;-68
2024/03/09 13:55:01;;;;;;;7.80;5.10;;;;;;;;;;4353098;32;317673;-70
2024/03/09 13:57:27;;;;;;;12.87;8.17;;;;;;;;;;4351217;32;346794;-67
2024/03/09 13:59:56;;;;;;;16.80;8.90;;;;;;;;;;4343256;32;317943;-68
2024/03/09 14:02:24;;;;;;;9.77;6.27;;;;;;;;;;4353204;32;321169;-70
2024/03/09 14:04:52;;;;;;;7.97;5.47;;;;;;;;;;4343410;32;317342;-68
2024/03/09 14:07:21;;;;;;;56.83;31.00;;;;;;;;;;4353609;32;317460;-68
2024/03/09 14:09:49;;;;;;;53.20;29.17;;;;;;;;;;4343112;32;319537;-70
2024/03/09 14:12:19;;;;;;;50.60;28.27;;;;;;;;;;4349474;32;319865;-69
2024/03/09 14:14:49;;;;;;;40.43;22.00;;;;;;;;;;4343299;32;319823;-68
2024/03/09 14:17:17;;;;;;;15.67;8.93;;;;;;;;;;4353048;32;319442;-68